createdAt,value
2023-05-02T00:00:17.452Z,94398.40
2023-05-02T00:03:03.890Z,94404.40
2023-05-02T00:05:30.326Z,94399.40
2023-05-02T00:07:56.803Z,94392.00
2023-05-02T00:10:23.100Z,94387.20
2023-05-02T00:12:49.251Z,94385.20
2023-05-02T00:15:15.333Z,94383.00
2023-05-02T00:17:41.700Z,94379.00
2023-05-02T00:20:08.758Z,94378.20
2023-05-02T00:22:35.186Z,94391.00
2023-05-02T00:25:02.924Z,94386.80
2023-05-02T00:27:29.082Z,94385.60
2023-05-02T00:29:55.256Z,94386.00
2023-05-02T00:32:21.741Z,94385.20
2023-05-02T00:34:48.664Z,94388.60
2023-05-02T00:37:15.329Z,94382.60
2023-05-02T00:39:44.329Z,94386.00
2023-05-02T00:42:10.480Z,94385.80
2023-05-02T00:44:36.622Z,94380.40
2023-05-02T00:47:03.740Z,94384.80
2023-05-02T00:49:30.508Z,94386.40
2023-05-02T00:51:56.569Z,94384.60
2023-05-02T00:54:22.702Z,94383.20
2023-05-02T00:56:49.132Z,94388.20
2023-05-02T00:59:15.273Z,94388.40
2023-05-02T01:01:41.695Z,94392.00
2023-05-02T01:04:08.668Z,94389.20
2023-05-02T01:06:36.941Z,94397.60
2023-05-02T01:09:07.292Z,94393.80
2023-05-02T01:11:34.144Z,94388.00
2023-05-02T01:14:00.893Z,94387.80
2023-05-02T01:16:29.762Z,94388.00
2023-05-02T01:18:55.861Z,94391.00
2023-05-02T01:21:23.229Z,94389.40
2023-05-02T01:23:49.648Z,94392.60
2023-05-02T01:26:17.151Z,94389.60
2023-05-02T01:28:44.666Z,94390.00
2023-05-02T01:31:14.467Z,94389.80
2023-05-02T01:33:41.552Z,94386.40
2023-05-02T01:36:07.667Z,94386.00
2023-05-02T01:38:36.171Z,94379.00
2023-05-02T01:41:04.664Z,94373.20
2023-05-02T01:43:31.328Z,94378.80
2023-05-02T01:45:57.924Z,94377.80
2023-05-02T01:48:24.021Z,94380.40
2023-05-02T01:50:50.329Z,94383.40
2023-05-02T01:53:16.692Z,94383.20
2023-05-02T01:55:42.933Z,94385.60
2023-05-02T01:58:11.824Z,94387.20
2023-05-02T02:00:38.975Z,94383.60
2023-05-02T02:03:06.766Z,94390.40
2023-05-02T02:05:32.895Z,94383.40
2023-05-02T02:08:01.650Z,94386.20
2023-05-02T02:10:28.080Z,94389.60
2023-05-02T02:12:54.162Z,94391.60
2023-05-02T02:15:20.524Z,94395.60
2023-05-02T02:17:47.162Z,94392.80
2023-05-02T02:20:13.640Z,94396.40
2023-05-02T02:22:39.858Z,94399.40
2023-05-02T02:25:07.707Z,94399.80
2023-05-02T02:27:33.892Z,94394.00
2023-05-02T02:30:01.169Z,94397.00
2023-05-02T02:32:27.494Z,94404.40
2023-05-02T02:34:54.601Z,94409.00
2023-05-02T02:37:20.771Z,94412.60
2023-05-02T02:39:47.030Z,94410.20
2023-05-02T02:42:13.128Z,94405.60
2023-05-02T02:44:39.277Z,94405.40
2023-05-02T02:47:05.431Z,94409.20
2023-05-02T02:49:31.558Z,94401.60
2023-05-02T02:51:57.999Z,94401.60
2023-05-02T02:54:27.165Z,94400.40
2023-05-02T02:56:53.671Z,94392.60
2023-05-02T02:59:19.770Z,94397.20
2023-05-02T03:01:45.920Z,94394.80
2023-05-02T03:04:12.158Z,94395.40
2023-05-02T03:06:38.347Z,94394.00
2023-05-02T03:09:04.671Z,94398.00
2023-05-02T03:11:30.739Z,94394.00
2023-05-02T03:13:56.939Z,94396.80
2023-05-02T03:16:23.067Z,94403.80
2023-05-02T03:18:49.209Z,94397.00
2023-05-02T03:21:15.730Z,94396.00
2023-05-02T03:23:41.890Z,94402.00
2023-05-02T03:26:08.019Z,94397.80
2023-05-02T03:28:34.148Z,94407.20
2023-05-02T03:31:00.420Z,94405.60
2023-05-02T03:33:26.656Z,94398.80
2023-05-02T03:35:52.898Z,94409.20
2023-05-02T03:38:19.002Z,94410.80
2023-05-02T03:40:45.318Z,94406.20
2023-05-02T03:43:11.484Z,94409.80
2023-05-02T03:45:37.641Z,94402.00
2023-05-02T03:48:03.783Z,94410.40
2023-05-02T03:50:30.419Z,94414.00
2023-05-02T03:52:56.519Z,94413.40
2023-05-02T03:55:22.612Z,94416.80
2023-05-02T03:57:48.827Z,94419.80
2023-05-02T04:00:15.268Z,94414.20
2023-05-02T04:02:41.630Z,94422.20
2023-05-02T04:05:07.938Z,94413.80
2023-05-02T04:07:34.026Z,94401.20
2023-05-02T04:10:00.317Z,94401.60
2023-05-02T04:12:26.649Z,94406.20
2023-05-02T04:14:52.837Z,94408.20
2023-05-02T04:17:19.000Z,94411.20
2023-05-02T04:19:45.285Z,94414.20
2023-05-02T04:22:11.652Z,94409.60
2023-05-02T04:24:37.715Z,94404.60
2023-05-02T04:27:03.928Z,94402.00
2023-05-02T04:29:30.157Z,94398.80
2023-05-02T04:31:56.219Z,94401.00
2023-05-02T04:34:22.523Z,94402.80
2023-05-02T04:36:48.600Z,94406.00
2023-05-02T04:39:14.845Z,94410.60
2023-05-02T04:41:42.462Z,94412.80
2023-05-02T04:44:08.537Z,94414.40
2023-05-02T04:46:34.850Z,94414.00
2023-05-02T04:49:01.524Z,94412.80
2023-05-02T04:51:28.471Z,94414.80
2023-05-02T04:53:54.623Z,94412.00
2023-05-02T04:56:21.261Z,94409.40
2023-05-02T04:58:47.366Z,94406.20
2023-05-02T05:01:13.509Z,94404.40
2023-05-02T05:03:39.782Z,94404.80
2023-05-02T05:06:05.990Z,94413.80
2023-05-02T05:08:33.073Z,94414.00
2023-05-02T05:10:59.245Z,94405.60
2023-05-02T05:13:25.383Z,94416.80
2023-05-02T05:15:51.648Z,94415.40
2023-05-02T05:18:18.192Z,94408.20
2023-05-02T05:20:44.328Z,94410.80
2023-05-02T05:23:10.409Z,94414.60
2023-05-02T05:25:36.585Z,94412.60
2023-05-02T05:28:02.753Z,94416.80
2023-05-02T05:30:30.379Z,94421.00
2023-05-02T05:32:58.132Z,94426.20
2023-05-02T05:35:24.418Z,94436.80
2023-05-02T05:37:50.666Z,94429.40
2023-05-02T05:40:17.020Z,94420.60
2023-05-02T05:42:43.217Z,94427.20
2023-05-02T05:45:09.655Z,94428.80
2023-05-02T05:47:35.930Z,94431.60
2023-05-02T05:50:02.355Z,94444.60
2023-05-02T05:52:28.794Z,94443.00
2023-05-02T05:54:55.867Z,94448.20
2023-05-02T05:57:22.338Z,94440.80
2023-05-02T05:59:48.622Z,94437.00
2023-05-02T06:02:15.867Z,94434.40
2023-05-02T06:04:42.113Z,94435.20
2023-05-02T06:07:08.261Z,94444.80
2023-05-02T06:09:34.434Z,94444.00
2023-05-02T06:12:01.457Z,94457.60
2023-05-02T06:14:27.549Z,94448.20
2023-05-02T06:16:53.749Z,94448.00
2023-05-02T06:19:20.009Z,94450.80
2023-05-02T06:21:46.612Z,94454.80
2023-05-02T06:24:12.798Z,94458.40
2023-05-02T06:26:38.887Z,94457.20
2023-05-02T06:29:04.980Z,94455.40
2023-05-02T06:31:31.120Z,94461.40
2023-05-02T06:33:57.325Z,94459.00
2023-05-02T06:36:27.003Z,94454.20
2023-05-02T06:38:53.268Z,94454.80
2023-05-02T06:41:20.083Z,94457.00
2023-05-02T06:43:46.311Z,94461.20
2023-05-02T06:46:12.502Z,94464.20
2023-05-02T06:48:38.650Z,94460.00
2023-05-02T06:51:04.789Z,94459.60
2023-05-02T06:53:32.924Z,94449.60
2023-05-02T06:55:59.409Z,94449.00
2023-05-02T06:58:25.696Z,94452.60
2023-05-02T07:00:52.087Z,94453.80
2023-05-02T07:03:18.189Z,94458.60
2023-05-02T07:05:44.286Z,94453.00
2023-05-02T07:08:10.950Z,94456.20
2023-05-02T07:10:37.125Z,94451.20
2023-05-02T07:13:03.258Z,94453.40
2023-05-02T07:15:29.499Z,94453.40
2023-05-02T07:17:55.657Z,94451.00
2023-05-02T07:20:21.873Z,94450.60
2023-05-02T07:22:48.177Z,94450.60
2023-05-02T07:25:14.260Z,94455.80
2023-05-02T07:27:40.569Z,94453.00
2023-05-02T07:30:06.758Z,94450.80
2023-05-02T07:32:33.032Z,94451.80
2023-05-02T07:34:59.340Z,94450.20
2023-05-02T07:37:25.616Z,94448.80
2023-05-02T07:39:51.760Z,94456.20
2023-05-02T07:42:17.867Z,94454.40
2023-05-02T07:44:44.171Z,94455.20
2023-05-02T07:47:10.266Z,94465.40
2023-05-02T07:49:36.357Z,94462.80
2023-05-02T07:52:02.609Z,94461.60
2023-05-02T07:54:29.222Z,94466.60
2023-05-02T07:56:58.010Z,94460.80
2023-05-02T07:59:24.161Z,94459.40
2023-05-02T08:01:50.379Z,94460.60
2023-05-02T08:04:16.834Z,94452.20
2023-05-02T08:06:43.135Z,94454.40
2023-05-02T08:09:09.264Z,94453.20
2023-05-02T08:11:35.435Z,94446.80
2023-05-02T08:14:01.677Z,94448.20
2023-05-02T08:16:27.882Z,94448.80
2023-05-02T08:18:54.252Z,94448.20
2023-05-02T08:21:20.508Z,94447.40
2023-05-02T08:23:46.610Z,94454.00
2023-05-02T08:26:12.751Z,94450.80
2023-05-02T08:28:38.860Z,94440.40
2023-05-02T08:31:05.113Z,94437.40
2023-05-02T08:33:31.429Z,94435.20
2023-05-02T08:35:57.583Z,94436.40
2023-05-02T08:38:23.699Z,94436.00
2023-05-02T08:40:49.791Z,94433.80
2023-05-02T08:43:15.966Z,94428.40
2023-05-02T08:45:42.235Z,94431.80
2023-05-02T08:48:09.790Z,94432.40
2023-05-02T08:50:36.209Z,94434.20
2023-05-02T08:53:02.358Z,94426.20
2023-05-02T08:55:28.840Z,94424.40
2023-05-02T08:57:55.055Z,94422.40
2023-05-02T09:00:21.118Z,94423.00
2023-05-02T09:02:47.393Z,94414.00
2023-05-02T09:05:15.819Z,94416.80
2023-05-02T09:07:41.908Z,94417.80
2023-05-02T09:10:08.016Z,94417.20
2023-05-02T09:12:34.128Z,94416.80
2023-05-02T09:15:00.538Z,94413.00
2023-05-02T09:17:26.870Z,94417.40
2023-05-02T09:19:53.043Z,94419.80
2023-05-02T09:22:19.138Z,94420.80
2023-05-02T09:24:45.265Z,94415.60
2023-05-02T09:27:12.622Z,94413.00
2023-05-02T09:29:40.150Z,94416.80
2023-05-02T09:32:06.294Z,94416.20
2023-05-02T09:34:33.065Z,94420.40
2023-05-02T09:36:59.145Z,94419.60
2023-05-02T09:39:26.143Z,94418.00
2023-05-02T09:41:52.661Z,94418.60
2023-05-02T09:44:18.793Z,94417.60
2023-05-02T09:46:45.136Z,94412.40
2023-05-02T09:49:11.657Z,94412.60
2023-05-02T09:51:37.780Z,94414.00
2023-05-02T09:54:03.894Z,94415.40
2023-05-02T09:56:30.079Z,94417.00
2023-05-02T09:58:56.172Z,94417.00
2023-05-02T10:01:22.355Z,94418.20
2023-05-02T10:03:48.541Z,94414.00
2023-05-02T10:06:14.854Z,94411.60
2023-05-02T10:08:40.965Z,94414.20
2023-05-02T10:11:07.099Z,94415.20
2023-05-02T10:13:34.131Z,94414.80
2023-05-02T10:16:00.778Z,94413.80
2023-05-02T10:18:27.399Z,94414.80
2023-05-02T10:20:53.653Z,94415.60
2023-05-02T10:23:19.856Z,94414.40
2023-05-02T10:25:46.025Z,94410.80
2023-05-02T10:28:12.289Z,94416.20
2023-05-02T10:30:38.400Z,94418.60
2023-05-02T10:33:04.559Z,94421.60
2023-05-02T10:35:32.276Z,94420.80
2023-05-02T10:37:58.649Z,94424.00
2023-05-02T10:40:25.257Z,94430.20
2023-05-02T10:42:52.344Z,94432.60
2023-05-02T10:45:18.408Z,94436.40
2023-05-02T10:47:44.972Z,94436.20
2023-05-02T10:50:11.148Z,94446.20
2023-05-02T10:52:40.866Z,94450.00
2023-05-02T10:55:06.972Z,94456.00
2023-05-02T10:57:33.073Z,94458.40
2023-05-02T10:59:59.217Z,94456.80
2023-05-02T11:02:27.532Z,94469.20
2023-05-02T11:04:53.778Z,94477.80
2023-05-02T11:07:20.335Z,94473.20
2023-05-02T11:09:46.462Z,94479.00
2023-05-02T11:12:12.584Z,94483.80
2023-05-02T11:14:39.089Z,94485.20
2023-05-02T11:17:05.687Z,94485.60
2023-05-02T11:19:31.896Z,94490.40
2023-05-02T11:21:57.990Z,94486.20
2023-05-02T11:24:24.162Z,94484.60
2023-05-02T11:26:50.390Z,94491.20
2023-05-02T11:29:16.501Z,94490.00
2023-05-02T11:31:43.113Z,94490.80
2023-05-02T11:34:10.041Z,94488.40
2023-05-02T11:36:36.195Z,94487.20
2023-05-02T11:39:02.876Z,94492.40
2023-05-02T11:41:29.004Z,94492.80
2023-05-02T11:43:55.056Z,94489.00
2023-05-02T11:46:21.600Z,94483.40
2023-05-02T11:48:47.892Z,94477.80
2023-05-02T11:51:14.063Z,94468.20
2023-05-02T11:53:40.818Z,94461.40
2023-05-02T11:56:08.227Z,94463.40
2023-05-02T11:58:34.602Z,94449.20
2023-05-02T12:01:00.812Z,94455.80
2023-05-02T12:03:27.127Z,94455.20
2023-05-02T12:05:53.447Z,94448.80
2023-05-02T12:08:20.003Z,94456.40
2023-05-02T12:10:46.061Z,94452.20
2023-05-02T12:13:12.169Z,94453.00
2023-05-02T12:15:38.295Z,94452.60
2023-05-02T12:18:04.635Z,94449.20
2023-05-02T12:20:31.219Z,94448.40
2023-05-02T12:22:57.359Z,94444.20
2023-05-02T12:25:23.610Z,94438.00
2023-05-02T12:27:49.985Z,94436.60
2023-05-02T12:30:16.331Z,94434.40
2023-05-02T12:32:44.868Z,94433.40
2023-05-02T12:35:13.741Z,94426.20
2023-05-02T12:37:39.991Z,94422.20
2023-05-02T12:40:06.431Z,94424.40
2023-05-02T12:42:33.836Z,94428.60
2023-05-02T12:45:00.395Z,94420.60
2023-05-02T12:47:26.670Z,94426.20
2023-05-02T12:49:52.994Z,94424.40
2023-05-02T12:52:19.149Z,94428.40
2023-05-02T12:54:46.521Z,94435.40
2023-05-02T12:57:12.946Z,94438.00
2023-05-02T12:59:40.313Z,94437.60
2023-05-02T13:02:06.514Z,94441.40
2023-05-02T13:04:32.851Z,94442.00
2023-05-02T13:06:59.037Z,94443.80
2023-05-02T13:09:25.365Z,94444.80
2023-05-02T13:11:53.380Z,94441.00
2023-05-02T13:14:19.607Z,94442.60
2023-05-02T13:16:45.835Z,94440.80
2023-05-02T13:19:12.143Z,94444.00
2023-05-02T13:21:38.259Z,94441.60
2023-05-02T13:24:04.460Z,94446.80
2023-05-02T13:26:30.544Z,94439.60
2023-05-02T13:28:56.697Z,94445.80
2023-05-02T13:31:22.848Z,94443.60
2023-05-02T13:33:48.974Z,94443.20
2023-05-02T13:36:15.329Z,94439.20
2023-05-02T13:38:41.470Z,94436.20
2023-05-02T13:41:07.623Z,94438.40
2023-05-02T13:43:33.891Z,94441.40
2023-05-02T13:46:00.088Z,94439.20
2023-05-02T13:48:26.232Z,94444.40
2023-05-02T13:50:52.598Z,94448.00
2023-05-02T13:53:18.747Z,94451.40
2023-05-02T13:55:45.067Z,94454.60
2023-05-02T13:58:11.262Z,94453.20
2023-05-02T14:00:37.434Z,94451.60
2023-05-02T14:03:04.471Z,94452.80
2023-05-02T14:05:30.668Z,94461.20
2023-05-02T14:07:56.733Z,94459.20
2023-05-02T14:10:22.843Z,94459.80
2023-05-02T14:12:50.324Z,94458.40
2023-05-02T14:15:16.625Z,94458.60
2023-05-02T14:17:42.860Z,94454.20
2023-05-02T14:20:09.850Z,94449.20
2023-05-02T14:22:35.940Z,94441.00
2023-05-02T14:25:02.184Z,94442.00
2023-05-02T14:27:28.340Z,94438.80
2023-05-02T14:29:54.615Z,94434.00
2023-05-02T14:32:21.101Z,94430.40
2023-05-02T14:34:47.234Z,94430.80
2023-05-02T14:37:13.322Z,94428.60
2023-05-02T14:39:41.572Z,94423.00
2023-05-02T14:42:07.735Z,94426.00
2023-05-02T14:44:33.981Z,94427.00
2023-05-02T14:47:00.260Z,94427.20
2023-05-02T14:49:26.413Z,94426.60
2023-05-02T14:51:52.718Z,94428.00
2023-05-02T14:54:19.594Z,94433.40
2023-05-02T14:56:46.534Z,94434.60
2023-05-02T14:59:12.730Z,94439.20
2023-05-02T15:01:38.927Z,94437.80
2023-05-02T15:04:07.788Z,94444.60
2023-05-02T15:06:35.244Z,94448.20
2023-05-02T15:09:01.978Z,94446.40
2023-05-02T15:11:28.151Z,94447.00
2023-05-02T15:13:54.824Z,94446.20
2023-05-02T15:16:22.687Z,94452.80
2023-05-02T15:18:49.158Z,94453.00
2023-05-02T15:21:15.264Z,94455.20
2023-05-02T15:23:41.656Z,94460.40
2023-05-02T15:26:07.955Z,94462.40
2023-05-02T15:28:34.041Z,94462.40
2023-05-02T15:31:00.141Z,94466.00
2023-05-02T15:33:26.559Z,94466.40
2023-05-02T15:35:53.224Z,94469.20
2023-05-02T15:38:19.383Z,94474.20
2023-05-02T15:40:46.799Z,94482.00
2023-05-02T15:43:12.876Z,94490.40
2023-05-02T15:45:39.296Z,94496.60
2023-05-02T15:48:05.441Z,94506.40
2023-05-02T15:50:31.522Z,94515.20
2023-05-02T15:52:57.806Z,94520.20
2023-05-02T15:55:23.986Z,94528.20
2023-05-02T15:57:51.275Z,94538.80
2023-05-02T16:00:17.465Z,94548.60
2023-05-02T16:02:43.957Z,94548.60
2023-05-02T16:05:10.107Z,94554.60
2023-05-02T16:07:36.335Z,94563.60
2023-05-02T16:10:03.077Z,94582.80
2023-05-02T16:12:29.510Z,94590.60
2023-05-02T16:14:55.642Z,94589.40
2023-05-02T16:17:21.972Z,94592.20
2023-05-02T16:19:48.032Z,94582.80
2023-05-02T16:22:14.181Z,94584.60
2023-05-02T16:24:40.661Z,94589.60
2023-05-02T16:27:06.876Z,94588.40
2023-05-02T16:29:32.954Z,94591.60
2023-05-02T16:31:59.247Z,94591.40
2023-05-02T16:34:25.388Z,94595.20
2023-05-02T16:36:52.368Z,94589.20
2023-05-02T16:39:18.537Z,94594.00
2023-05-02T16:41:44.624Z,94595.80
2023-05-02T16:44:10.892Z,94601.80
2023-05-02T16:46:37.008Z,94599.00
2023-05-02T16:49:03.237Z,94599.20
2023-05-02T16:51:31.032Z,94602.60
2023-05-02T16:53:57.464Z,94608.40
2023-05-02T16:56:23.580Z,94608.60
2023-05-02T16:58:49.687Z,94610.00
2023-05-02T17:01:16.648Z,94614.40
2023-05-02T17:03:42.806Z,94607.60
2023-05-02T17:06:09.145Z,94605.80
2023-05-02T17:08:35.913Z,94601.20
2023-05-02T17:11:02.061Z,94607.60
2023-05-02T17:13:28.639Z,94607.60
2023-05-02T17:15:55.364Z,94613.20
2023-05-02T17:18:21.578Z,94611.80
2023-05-02T17:20:48.291Z,94612.40
2023-05-02T17:23:14.645Z,94614.60
2023-05-02T17:25:41.047Z,94620.40
2023-05-02T17:28:07.155Z,94623.20
2023-05-02T17:30:33.315Z,94623.80
2023-05-02T17:32:59.831Z,94626.60
2023-05-02T17:35:26.063Z,94632.00
2023-05-02T17:37:52.240Z,94640.40
2023-05-02T17:40:18.328Z,94643.00
2023-05-02T17:42:48.118Z,94647.00
2023-05-02T17:45:14.395Z,94644.00
2023-05-02T17:47:41.461Z,94640.40
2023-05-02T17:50:08.074Z,94642.60
2023-05-02T17:52:34.872Z,94647.60
2023-05-02T17:55:01.374Z,94650.00
2023-05-02T17:57:27.519Z,94649.00
2023-05-02T17:59:57.738Z,94650.20
2023-05-02T18:02:23.926Z,94649.40
2023-05-02T18:04:50.196Z,94658.60
2023-05-02T18:07:22.891Z,94661.80
2023-05-02T18:09:49.244Z,94664.80
2023-05-02T18:12:15.397Z,94664.20
2023-05-02T18:14:41.797Z,94663.40
2023-05-02T18:17:09.865Z,94671.20
2023-05-02T18:19:36.243Z,94674.20
2023-05-02T18:22:02.903Z,94677.20
2023-05-02T18:24:29.022Z,94682.40
2023-05-02T18:26:55.130Z,94690.20
2023-05-02T18:29:21.226Z,94692.80
2023-05-02T18:31:51.669Z,94698.00
2023-05-02T18:34:17.818Z,94701.60
2023-05-02T18:36:44.564Z,94705.60
2023-05-02T18:39:10.650Z,94705.40
2023-05-02T18:41:38.590Z,94710.20
2023-05-02T18:44:06.186Z,94710.80
2023-05-02T18:46:32.467Z,94714.60
2023-05-02T18:48:58.640Z,94712.20
2023-05-02T18:51:24.741Z,94710.00
2023-05-02T18:53:50.857Z,94711.00
2023-05-02T18:56:17.060Z,94715.40
2023-05-02T18:58:43.549Z,94718.20
2023-05-02T19:01:09.684Z,94715.80
2023-05-02T19:03:35.860Z,94721.20
2023-05-02T19:06:03.639Z,94721.40
2023-05-02T19:08:29.725Z,94719.60
2023-05-02T19:10:55.819Z,94729.00
2023-05-02T19:13:21.921Z,94731.80
2023-05-02T19:15:48.014Z,94733.20
2023-05-02T19:18:14.463Z,94734.80
2023-05-02T19:20:40.834Z,94732.60
2023-05-02T19:25:41.241Z,94734.00
2023-05-02T19:28:07.354Z,94737.80
2023-05-02T19:30:33.530Z,94741.80
2023-05-02T19:32:59.777Z,94736.20
2023-05-02T19:35:27.894Z,94738.60
2023-05-02T19:37:54.320Z,94736.00
2023-05-02T19:40:20.404Z,94742.20
2023-05-02T19:42:46.507Z,94744.80
2023-05-02T19:45:13.162Z,94744.00
2023-05-02T19:47:42.968Z,94744.40
2023-05-02T19:50:09.204Z,94742.00
2023-05-02T19:52:38.315Z,94737.20
2023-05-02T19:55:04.730Z,94744.80
2023-05-02T19:57:31.155Z,94747.60
2023-05-02T19:59:57.562Z,94748.60
2023-05-02T20:02:23.785Z,94746.40
2023-05-02T20:04:50.043Z,94746.20
2023-05-02T20:07:16.189Z,94744.40
2023-05-02T20:09:42.281Z,94746.60
2023-05-02T20:12:08.545Z,94745.40
2023-05-02T20:14:34.686Z,94743.20
2023-05-02T20:17:02.190Z,94745.80
2023-05-02T20:19:31.647Z,94743.00
2023-05-02T20:21:57.739Z,94750.00
2023-05-02T20:24:23.804Z,94745.80
2023-05-02T20:26:49.942Z,94741.60
2023-05-02T20:29:16.030Z,94743.80
2023-05-02T20:31:42.624Z,94744.20
2023-05-02T20:34:08.882Z,94743.00
2023-05-02T20:36:35.061Z,94747.20
2023-05-02T20:39:04.016Z,94748.40
2023-05-02T20:41:31.608Z,94751.40
2023-05-02T20:43:59.309Z,94753.20
2023-05-02T20:46:28.516Z,94752.00
2023-05-02T20:48:55.146Z,94752.00
2023-05-02T20:51:21.233Z,94755.60
2023-05-02T20:53:48.279Z,94761.60
2023-05-02T20:56:14.404Z,94760.20
2023-05-02T20:58:40.671Z,94762.60
2023-05-02T21:01:06.864Z,94764.20
2023-05-02T21:03:35.873Z,94762.60
2023-05-02T21:06:02.075Z,94766.00
2023-05-02T21:08:28.251Z,94766.40
2023-05-02T21:10:54.463Z,94767.60
2023-05-02T21:13:20.542Z,94769.00
2023-05-02T21:15:46.726Z,94770.60
2023-05-02T21:18:12.907Z,94770.80
2023-05-02T21:20:40.705Z,94771.80
2023-05-02T21:23:06.800Z,94771.20
2023-05-02T21:25:32.952Z,94773.00
2023-05-02T21:27:59.046Z,94777.60
2023-05-02T21:30:25.246Z,94778.80
2023-05-02T21:32:51.343Z,94779.80
2023-05-02T21:35:17.441Z,94777.20
2023-05-02T21:37:43.748Z,94776.80
2023-05-02T21:40:09.888Z,94779.20
2023-05-02T21:42:36.013Z,94777.60
2023-05-02T21:45:02.104Z,94772.00
2023-05-02T21:47:28.332Z,94770.80
2023-05-02T21:49:54.677Z,94767.60
2023-05-02T21:52:20.779Z,94771.60
2023-05-02T21:54:51.641Z,94772.60
2023-05-02T21:57:18.356Z,94770.40
2023-05-02T21:59:44.617Z,94771.80
2023-05-02T22:02:11.402Z,94774.00
2023-05-02T22:04:37.515Z,94779.60
2023-05-02T22:07:04.234Z,94786.40
2023-05-02T22:09:33.208Z,94786.60
2023-05-02T22:11:59.647Z,94788.20
2023-05-02T22:14:33.912Z,94791.20
2023-05-02T22:17:07.580Z,94791.60
2023-05-02T22:19:33.675Z,94791.40
2023-05-02T22:22:01.012Z,94795.20
2023-05-02T22:24:27.974Z,94798.80
2023-05-02T22:26:55.096Z,94803.60
2023-05-02T22:29:21.789Z,94802.00
2023-05-02T22:31:49.309Z,94802.60
2023-05-02T22:34:15.458Z,94803.80
2023-05-02T22:36:41.553Z,94807.80
2023-05-02T22:39:12.372Z,94809.20
2023-05-02T22:41:38.715Z,94812.60
2023-05-02T22:44:04.874Z,94815.40
2023-05-02T22:46:31.081Z,94819.60
2023-05-02T22:48:57.178Z,94818.40
2023-05-02T22:51:23.354Z,94818.20
2023-05-02T22:53:49.474Z,94812.40
2023-05-02T22:56:15.679Z,94806.80
2023-05-02T22:58:41.763Z,94805.00
2023-05-02T23:01:08.121Z,94808.20
2023-05-02T23:03:34.343Z,94811.60
2023-05-02T23:06:00.593Z,94804.80
2023-05-02T23:08:26.807Z,94807.40
2023-05-02T23:10:52.927Z,94802.80
2023-05-02T23:13:19.111Z,94803.20
2023-05-02T23:15:45.305Z,94805.20
2023-05-02T23:18:11.455Z,94808.20
2023-05-02T23:20:37.591Z,94803.60
2023-05-02T23:23:03.707Z,94800.60
2023-05-02T23:25:29.790Z,94799.00
2023-05-02T23:27:55.911Z,94802.40
2023-05-02T23:30:22.052Z,94805.60
2023-05-02T23:32:48.423Z,94806.80
2023-05-02T23:35:14.935Z,94804.00
2023-05-02T23:37:41.051Z,94801.60
2023-05-02T23:40:08.586Z,94802.80
2023-05-02T23:42:37.145Z,94804.40
2023-05-02T23:45:03.336Z,94809.60
2023-05-02T23:47:29.466Z,94805.80
2023-05-02T23:49:55.642Z,94806.80
2023-05-02T23:52:21.784Z,94801.40
2023-05-02T23:54:47.924Z,94798.60
2023-05-02T23:57:14.044Z,94793.00
2023-05-02T23:59:43.212Z,94786.00
